Time;durP1;ratioP1;P1;durP2;ratioP2;P2;SDS_P1;SDS_P2;PMS_P1;PMS_P2;Temp;Humidity;BMP_temperature;BMP_pressure;BME280_temperature;BME280_humidity;BME280_pressure;Samples;Min_cycle;Max_cycle;Signal;HPM_P1;HPM_P2
2022/11/04 00:01:55;;;;;;;4.63;4.33;;;;;;;9.86;100.00;95794.03;4955460;29;20273;-75
2022/11/04 00:04:23;;;;;;;4.80;4.50;;;;;;;9.82;100.00;95791.13;4955035;29;20185;-75
2022/11/04 00:06:49;;;;;;;4.83;4.57;;;;;;;9.79;100.00;95788.22;4947591;29;20253;-75
2022/11/04 00:09:18;;;;;;;5.43;5.03;;;;;;;9.84;100.00;95783.03;4955380;29;20280;-75
2022/11/04 00:14:29;;;;;;;5.80;5.50;;;;;;;9.77;100.00;95783.22;4950344;29;20232;-75
2022/11/04 00:30:35;;;;;;;5.73;5.37;;;;;;;9.70;100.00;95787.03;4955308;29;20650;-76
2022/11/04 00:35:49;;;;;;;4.27;4.00;;;;;;;9.72;100.00;95777.13;4954165;28;20188;-75
2022/11/04 00:38:15;;;;;;;4.20;4.00;;;;;;;9.72;100.00;95780.53;4935787;29;20673;-75
2022/11/04 00:40:41;;;;;;;4.83;4.57;;;;;;;9.72;100.00;95783.16;4936020;29;20260;-75
2022/11/04 00:43:06;;;;;;;4.43;4.23;;;;;;;9.69;100.00;95781.03;4935328;29;20186;-75
2022/11/04 00:45:31;;;;;;;5.80;4.13;;;;;;;9.72;100.00;95784.97;4935621;29;20185;-75
2022/11/04 00:47:57;;;;;;;4.20;3.97;;;;;;;9.67;100.00;95780.50;4935974;29;20197;-75
2022/11/04 00:50:22;;;;;;;3.77;3.57;;;;;;;9.66;100.00;95778.91;4935627;29;20643;-76
2022/11/04 00:52:48;;;;;;;4.00;3.80;;;;;;;9.67;100.00;95788.34;4935612;29;20194;-75
2022/11/04 00:55:13;;;;;;;4.17;3.87;;;;;;;9.70;100.00;95790.44;4934520;29;20194;-76
2022/11/04 00:57:38;;;;;;;4.33;4.13;;;;;;;9.66;100.00;95793.81;4934572;29;20209;-75
2022/11/04 01:00:04;;;;;;;3.70;3.53;;;;;;;9.66;100.00;95791.19;4935377;29;20209;-75
2022/11/04 01:02:30;;;;;;;3.87;3.70;;;;;;;9.65;100.00;95790.41;4935197;29;20189;-76
2022/11/04 01:04:55;;;;;;;3.53;3.43;;;;;;;9.66;100.00;95796.41;4934515;29;20189;-75
2022/11/04 01:07:21;;;;;;;4.17;3.87;;;;;;;9.66;100.00;95801.66;4935194;29;20190;-74
2022/11/04 01:09:48;;;;;;;4.67;4.47;;;;;;;9.67;100.00;95795.41;4935746;29;20292;-74
2022/11/04 01:12:13;;;;;;;4.70;4.50;;;;;;;9.68;100.00;95784.69;4935860;29;20190;-75
2022/11/04 01:14:38;;;;;;;4.13;3.93;;;;;;;9.70;100.00;95793.06;4934377;29;20190;-74
2022/11/04 01:17:04;;;;;;;5.07;4.87;;;;;;;9.67;100.00;95798.81;4934920;29;20182;-74
2022/11/04 01:19:30;;;;;;;6.87;6.47;;;;;;;9.63;100.00;95807.41;4935443;29;20229;-75
2022/11/04 01:21:55;;;;;;;4.37;4.17;;;;;;;9.62;100.00;95813.66;4937489;29;20221;-75
2022/11/04 01:24:20;;;;;;;4.07;3.77;;;;;;;9.64;100.00;95814.97;4937280;29;20245;-75
2022/11/04 01:26:45;;;;;;;4.13;3.93;;;;;;;9.59;100.00;95815.72;4937196;29;20194;-75
2022/11/04 01:29:11;;;;;;;4.10;3.90;;;;;;;9.59;100.00;95820.94;4937015;29;20224;-76
2022/11/04 01:31:36;;;;;;;4.20;4.00;;;;;;;9.63;100.00;95815.25;4919816;29;20541;-76
2022/11/04 01:34:02;;;;;;;4.10;3.80;;;;;;;9.63;100.00;95807.41;4935277;29;20197;-75
2022/11/04 01:36:28;;;;;;;4.27;4.07;;;;;;;9.61;100.00;95818.09;4941467;29;20240;-76
2022/11/04 01:38:55;;;;;;;4.43;4.13;;;;;;;9.65;100.00;95834.09;4954424;29;20662;-76
2022/11/04 01:41:23;;;;;;;4.70;4.50;;;;;;;9.68;100.00;95831.00;4954996;29;20547;-75
2022/11/04 01:43:55;;;;;;;4.70;4.50;;;;;;;9.60;100.00;95827.75;4946902;29;20193;-75
2022/11/04 01:46:28;;;;;;;4.00;3.70;;;;;;;9.64;100.00;95819.44;4935754;29;20194;-75
2022/11/04 01:48:58;;;;;;;5.10;4.80;;;;;;;9.59;100.00;95822.75;4939252;29;20218;-75
2022/11/04 01:51:24;;;;;;;5.27;4.87;;;;;;;9.63;100.00;95815.25;4958751;29;20253;-75
2022/11/04 01:53:53;;;;;;;6.47;6.17;;;;;;;9.55;100.00;95813.84;4950708;29;20182;-75
2022/11/04 01:56:19;;;;;;;6.10;5.80;;;;;;;9.47;100.00;95815.03;4922449;29;20294;-74
2022/11/04 01:58:51;;;;;;;5.40;5.10;;;;;;;9.54;100.00;95807.81;4953812;29;20201;-75
2022/11/04 02:01:18;;;;;;;4.63;4.33;;;;;;;9.51;100.00;95810.13;4958510;29;20177;-75
2022/11/04 02:03:51;;;;;;;4.73;4.53;;;;;;;9.47;100.00;95814.28;4955784;29;20545;-75
2022/11/04 02:06:18;;;;;;;4.07;3.77;;;;;;;9.40;100.00;95808.41;4945897;29;20194;-74
2022/11/04 02:08:45;;;;;;;3.90;3.80;;;;;;;9.41;100.00;95800.34;4921688;29;20604;-78
2022/11/04 02:12:48;;;;;;;4.57;4.27;;;;;;;9.42;100.00;95788.03;4941355;29;20194;-76
2022/11/04 02:13:56;;;;;;;5.10;4.70;;;;;;;9.43;100.00;95798.25;4953776;29;20273;-74
2022/11/04 02:16:31;;;;;;;4.77;4.47;;;;;;;9.47;100.00;95795.97;4945205;29;20229;-75
2022/11/04 02:19:22;;;;;;;5.17;4.97;;;;;;;9.42;100.00;95801.09;4957185;29;20240;-75
2022/11/04 02:22:20;;;;;;;8.43;8.03;;;;;;;9.45;100.00;95803.25;4940359;29;20193;-75
2022/11/04 02:25:22;;;;;;;7.87;7.47;;;;;;;9.30;100.00;95805.69;4930376;29;20285;-74
2022/11/04 02:28:06;;;;;;;7.07;6.77;;;;;;;9.33;100.00;95815.66;4949346;29;20180;-76
2022/11/04 02:30:45;;;;;;;5.73;5.43;;;;;;;9.33;100.00;95810.41;4956787;29;20236;-74
2022/11/04 02:33:19;;;;;;;4.97;4.77;;;;;;;9.30;100.00;95809.09;4956152;29;20181;-76
2022/11/04 02:36:00;;;;;;;4.70;4.40;;;;;;;9.35;100.00;95793.47;4939631;29;20186;-77
2022/11/04 02:38:37;;;;;;;4.73;4.53;;;;;;;9.28;100.00;95795.47;4937492;29;20293;-76
2022/11/04 02:41:17;;;;;;;4.90;4.70;;;;;;;9.25;100.00;95803.00;4937804;29;20662;-77
2022/11/04 02:44:10;;;;;;;10.57;10.07;;;;;;;9.23;100.00;95800.63;4937783;29;20178;-76
2022/11/04 02:46:44;;;;;;;13.10;12.50;;;;;;;9.20;100.00;95793.25;4937852;29;20286;-75
2022/11/04 02:49:13;;;;;;;12.53;11.93;;;;;;;9.19;100.00;95804.75;4938519;29;20264;-75
2022/11/04 02:52:18;;;;;;;9.73;9.30;;;;;;;9.14;100.00;95808.06;4938051;29;20194;-73
2022/11/04 02:54:50;;;;;;;5.13;4.83;;;;;;;9.12;100.00;95798.91;4841949;29;20193;-74
2022/11/04 02:57:25;;;;;;;4.23;3.97;;;;;;;9.10;100.00;95790.50;4908286;29;20292;-74
2022/11/04 03:00:02;;;;;;;3.90;3.53;;;;;;;9.07;100.00;95804.06;4936517;29;20516;-75
2022/11/04 03:02:34;;;;;;;4.47;4.27;;;;;;;9.09;100.00;95813.25;4937303;29;20225;-76
2022/11/04 03:05:02;;;;;;;4.63;4.30;;;;;;;9.08;100.00;95803.03;4937185;29;20206;-75
2022/11/04 03:07:34;;;;;;;4.07;3.87;;;;;;;9.09;100.00;95796.75;4937243;29;20390;-74
2022/11/04 03:10:04;;;;;;;4.27;4.07;;;;;;;9.05;100.00;95806.91;4937538;29;20178;-74
2022/11/04 03:12:38;;;;;;;4.83;4.63;;;;;;;8.99;100.00;95802.66;4937432;29;20270;-75
2022/11/04 03:15:08;;;;;;;4.77;4.57;;;;;;;9.04;100.00;95799.31;4923192;29;20262;-74
2022/11/04 03:17:43;;;;;;;5.13;4.83;;;;;;;9.02;100.00;95810.03;4937430;29;20269;-74
2022/11/04 03:20:17;;;;;;;4.30;4.10;;;;;;;8.98;100.00;95823.78;4931550;29;20631;-74
2022/11/04 03:22:42;;;;;;;4.33;4.13;;;;;;;9.00;100.00;95813.91;4936198;29;20193;-74
2022/11/04 03:25:08;;;;;;;5.63;5.33;;;;;;;9.02;100.00;95822.31;4936975;29;20219;-74
2022/11/04 03:28:03;;;;;;;5.43;5.03;;;;;;;8.94;100.00;95815.66;4936902;29;20189;-74
2022/11/04 03:30:37;;;;;;;5.10;4.60;;;;;;;9.01;100.00;95821.50;4936829;29;20194;-74
2022/11/04 03:33:23;;;;;;;5.10;4.90;;;;;;;8.89;100.00;95839.09;4936842;29;20189;-75
2022/11/04 03:35:48;;;;;;;5.33;5.13;;;;;;;9.04;100.00;95843.75;4937022;29;20200;-74
2022/11/04 03:38:14;;;;;;;4.33;4.13;;;;;;;8.94;100.00;95844.41;4935479;29;20301;-74
2022/11/04 03:40:39;;;;;;;4.00;3.80;;;;;;;8.92;100.00;95845.66;4937114;29;20567;-74
2022/11/04 03:43:13;;;;;;;5.43;5.13;;;;;;;8.94;100.00;95852.22;4936720;29;20186;-75
2022/11/04 03:45:39;;;;;;;5.40;5.03;;;;;;;8.88;100.00;95858.41;4922964;29;20177;-76
2022/11/04 03:48:05;;;;;;;4.57;4.37;;;;;;;8.84;100.00;95859.13;4936683;29;20187;-74
2022/11/04 03:50:38;;;;;;;4.63;4.33;;;;;;;8.71;100.00;95857.63;4919783;29;20193;-75
2022/11/04 03:53:03;;;;;;;9.10;8.60;;;;;;;8.62;100.00;95862.47;4936782;29;20649;-74
2022/11/04 03:56:06;;;;;;;19.87;18.90;;;;;;;8.60;100.00;95864.50;4936885;29;20190;-74
2022/11/04 03:58:46;;;;;;;19.90;18.83;;;;;;;8.61;100.00;95863.47;4921196;29;20245;-74
2022/11/04 04:01:35;;;;;;;10.00;9.47;;;;;;;8.67;100.00;95866.97;4936743;29;20190;-74
2022/11/04 04:04:25;;;;;;;8.73;8.23;;;;;;;8.64;100.00;95855.16;4935013;29;20602;-74
2022/11/04 04:06:54;;;;;;;4.73;4.30;;;;;;;8.69;100.00;95859.69;4936652;29;20643;-74
2022/11/04 04:09:25;;;;;;;3.90;3.70;;;;;;;8.71;100.00;95855.00;4936617;29;20209;-74
2022/11/04 04:12:04;;;;;;;5.60;5.10;;;;;;;8.70;100.00;95856.81;4936095;29;20186;-74
2022/11/04 04:14:39;;;;;;;4.57;4.37;;;;;;;8.77;100.00;95867.13;4936123;29;20189;-74
2022/11/04 04:17:13;;;;;;;5.10;4.80;;;;;;;8.66;100.00;95862.75;4936341;29;20186;-75
2022/11/04 04:19:44;;;;;;;10.53;10.00;;;;;;;8.59;100.00;95862.13;4936149;29;20267;-74
2022/11/04 04:22:16;;;;;;;17.90;16.93;;;;;;;8.61;100.00;95858.25;4935045;29;20610;-76
2022/11/04 04:27:31;;;;;;;20.40;19.20;;;;;;;8.52;100.00;95845.84;4935872;29;20610;-74
2022/11/04 04:30:16;;;;;;;21.73;20.60;;;;;;;8.42;100.00;95862.09;4936105;29;20190;-74
2022/11/04 04:32:41;;;;;;;17.83;16.93;;;;;;;8.49;100.00;95867.97;4936236;29;20178;-75
2022/11/04 04:44:58;;;;;;;23.10;21.70;;;;;;;8.45;100.00;95873.91;4939659;29;20301;-75
2022/11/04 04:46:11;;;;;;;16.93;15.93;;;;;;;8.36;100.00;95872.72;4945848;29;20239;-75
2022/11/04 04:48:36;;;;;;;15.67;14.77;;;;;;;8.35;100.00;95877.13;4936386;29;20197;-75
2022/11/04 04:51:01;;;;;;;14.83;14.03;;;;;;;8.43;100.00;95868.13;4951399;29;20193;-75
2022/11/04 04:53:27;;;;;;;14.47;13.77;;;;;;;8.35;100.00;95851.03;4954183;29;20610;-75
2022/11/04 04:55:52;;;;;;;12.13;11.33;;;;;;;8.31;100.00;95839.47;4954747;29;20177;-75
2022/11/04 04:58:17;;;;;;;17.33;16.00;;;;;;;8.31;100.00;95842.84;4938805;29;20268;-75
2022/11/04 05:00:43;;;;;;;20.77;19.70;;;;;;;8.25;100.00;95837.75;4918752;29;20192;-76
2022/11/04 05:03:08;;;;;;;20.33;19.27;;;;;;;8.25;100.00;95814.25;4936124;29;20201;-75
2022/11/04 05:05:33;;;;;;;17.30;16.33;;;;;;;8.32;100.00;95799.28;4945388;29;20277;-75
2022/11/04 05:08:06;;;;;;;18.13;17.13;;;;;;;8.42;100.00;95793.41;4941134;29;20200;-75
2022/11/04 05:10:32;;;;;;;18.90;17.93;;;;;;;8.34;100.00;95789.41;4935712;29;20194;-75
2022/11/04 05:15:43;;;;;;;18.83;17.70;;;;;;;8.16;100.00;95779.94;4936592;29;20267;-75
2022/11/04 05:18:08;;;;;;;12.33;11.73;;;;;;;8.22;100.00;95778.19;4950099;29;20259;-75
2022/11/04 05:20:37;;;;;;;10.43;9.63;;;;;;;8.25;100.00;95780.31;4954015;29;20181;-75
2022/11/04 05:23:02;;;;;;;8.30;7.53;;;;;;;8.25;100.00;95788.16;4938381;29;20196;-74
2022/11/04 05:25:28;;;;;;;5.97;5.57;;;;;;;8.30;100.00;95799.50;4949875;29;20193;-75
2022/11/04 05:27:53;;;;;;;11.13;10.13;;;;;;;8.23;100.00;95809.28;4951073;29;20741;-76
2022/11/04 05:30:18;;;;;;;12.57;11.47;;;;;;;8.13;100.00;95819.56;4958502;29;20649;-75
2022/11/04 05:32:44;;;;;;;16.83;15.70;;;;;;;8.13;100.00;95816.97;4957815;29;20208;-75
2022/11/04 05:35:09;;;;;;;21.37;20.10;;;;;;;8.10;100.00;95814.81;4941020;29;20197;-74
2022/11/04 05:37:35;;;;;;;15.47;14.67;;;;;;;7.96;100.00;95823.94;4948247;29;20320;-74
2022/11/04 05:40:00;;;;;;;11.80;11.13;;;;;;;7.96;100.00;95823.94;4939315;29;20213;-74
2022/11/04 05:42:25;;;;;;;6.83;6.33;;;;;;;7.96;100.00;95833.59;4954293;29;20193;-76
2022/11/04 05:44:51;;;;;;;5.67;5.27;;;;;;;7.95;100.00;95835.41;4939392;29;20218;-75
2022/11/04 05:47:16;;;;;;;5.53;5.20;;;;;;;7.89;100.00;95833.72;4945969;29;20192;-75
2022/11/04 05:49:41;;;;;;;5.53;5.23;;;;;;;7.91;100.00;95832.44;4957884;29;20201;-75
2022/11/04 05:52:07;;;;;;;6.10;5.63;;;;;;;7.90;100.00;95827.50;4958188;29;20197;-74
2022/11/04 05:54:32;;;;;;;6.00;5.67;;;;;;;7.88;100.00;95826.91;4957531;29;20185;-74
2022/11/04 05:56:57;;;;;;;7.43;6.93;;;;;;;7.87;100.00;95817.50;4953653;29;20186;-76
2022/11/04 05:59:23;;;;;;;5.57;5.10;;;;;;;7.88;100.00;95800.84;4938572;29;20202;-74
2022/11/04 06:01:49;;;;;;;4.00;3.80;;;;;;;7.96;100.00;95810.13;4945869;29;20634;-77
2022/11/04 06:04:16;;;;;;;4.50;4.20;;;;;;;8.02;100.00;95798.75;4946293;29;20213;-76
2022/11/04 06:06:42;;;;;;;6.03;4.00;;;;;;;8.10;100.00;95793.13;4940218;29;20216;-74
2022/11/04 06:09:07;;;;;;;4.33;3.90;;;;;;;8.14;100.00;95795.03;4957292;29;20654;-76
2022/11/04 06:11:34;;;;;;;3.83;3.63;;;;;;;8.06;100.00;95794.63;4954471;29;20209;-75
2022/11/04 06:13:59;;;;;;;3.80;3.60;;;;;;;7.91;100.00;95805.59;4938637;29;20182;-75
2022/11/04 06:16:26;;;;;;;4.57;4.27;;;;;;;7.86;100.00;95815.91;4950074;29;20181;-74
2022/11/04 06:18:51;;;;;;;4.70;4.27;;;;;;;8.01;100.00;95821.44;4940860;29;20539;-75
2022/11/04 06:21:20;;;;;;;6.87;6.47;;;;;;;7.94;100.00;95820.78;4955986;29;20265;-75
2022/11/04 06:23:46;;;;;;;6.27;5.77;;;;;;;7.96;100.00;95830.97;4957152;29;20205;-75
2022/11/04 06:26:12;;;;;;;7.30;6.60;;;;;;;7.83;100.00;95840.66;4957121;29;20193;-74
2022/11/04 06:28:37;;;;;;;6.37;6.07;;;;;;;7.87;100.00;95857.44;4940312;29;20242;-75
2022/11/04 06:31:05;;;;;;;5.70;5.20;;;;;;;8.02;100.00;95859.56;4941502;29;20189;-75
2022/11/04 06:33:31;;;;;;;4.73;4.43;;;;;;;7.82;100.00;95862.56;4950464;28;20193;-74
2022/11/04 06:36:00;;;;;;;5.43;5.03;;;;;;;7.76;100.00;95853.03;4937976;29;20186;-75
2022/11/04 06:38:25;;;;;;;5.37;5.00;;;;;;;7.82;100.00;95853.94;4937381;29;20216;-75
2022/11/04 06:40:51;;;;;;;5.13;4.73;;;;;;;7.83;100.00;95855.53;4937770;29;20186;-74
2022/11/04 06:43:17;;;;;;;4.37;3.90;;;;;;;7.88;100.00;95855.63;4937527;29;20194;-73
2022/11/04 06:45:42;;;;;;;5.17;4.77;;;;;;;7.87;100.00;95862.66;4937796;29;20197;-74
2022/11/04 06:48:08;;;;;;;4.73;4.43;;;;;;;7.87;100.00;95864.47;4937280;29;20197;-74
2022/11/04 06:50:33;;;;;;;4.63;4.33;;;;;;;7.78;100.00;95868.47;4920429;29;20186;-73
2022/11/04 06:52:58;;;;;;;4.33;4.03;;;;;;;7.77;100.00;95870.28;4937350;29;20197;-76
2022/11/04 06:55:24;;;;;;;4.83;4.30;;;;;;;7.81;100.00;95868.00;4937278;29;20189;-74
2022/11/04 06:57:50;;;;;;;4.33;4.13;;;;;;;7.91;100.00;95863.75;4937469;29;20214;-74
2022/11/04 07:00:15;;;;;;;4.90;4.60;;;;;;;7.90;100.00;95862.19;4937242;29;20544;-74
2022/11/04 07:02:41;;;;;;;5.23;4.90;;;;;;;7.99;100.00;95860.00;4936793;29;20186;-74
2022/11/04 07:05:06;;;;;;;7.00;4.80;;;;;;;8.00;100.00;95860.78;4937674;29;20235;-73
2022/11/04 07:07:32;;;;;;;4.97;4.73;;;;;;;7.90;100.00;95854.38;4937922;29;20198;-75
2022/11/04 07:09:57;;;;;;;6.20;5.70;;;;;;;7.97;100.00;95846.38;4937021;29;20581;-73
2022/11/04 07:12:23;;;;;;;6.90;6.60;;;;;;;8.09;100.00;95841.91;4936823;29;20197;-74
2022/11/04 07:14:49;;;;;;;7.57;7.07;;;;;;;8.14;100.00;95836.00;4937592;29;20705;-74
2022/11/04 07:17:15;;;;;;;7.23;6.83;;;;;;;8.09;100.00;95831.47;4937457;29;20273;-74
2022/11/04 07:19:40;;;;;;;6.73;6.33;;;;;;;8.08;100.00;95832.50;4936772;29;20292;-73
2022/11/04 07:22:07;;;;;;;6.10;5.70;;;;;;;8.11;100.00;95823.41;4937057;29;20200;-73
2022/11/04 07:24:32;;;;;;;7.47;6.77;;;;;;;8.23;100.00;95830.19;4936123;29;20194;-73
2022/11/04 07:26:57;;;;;;;7.50;6.90;;;;;;;8.33;100.00;95829.56;4936515;29;20257;-73
2022/11/04 07:29:24;;;;;;;7.80;7.30;;;;;;;8.27;100.00;95830.50;4937236;29;20194;-74
2022/11/04 07:31:49;;;;;;;7.13;6.73;;;;;;;8.29;100.00;95833.66;4936695;29;20201;-75
2022/11/04 07:34:15;;;;;;;7.27;6.80;;;;;;;8.29;100.00;95831.84;4937178;29;20550;-74
2022/11/04 07:36:40;;;;;;;5.53;5.23;;;;;;;8.27;100.00;95836.50;4944101;29;20596;-74
2022/11/04 07:39:05;;;;;;;7.07;6.67;;;;;;;8.34;100.00;95829.34;4945171;29;20551;-73
2022/11/04 07:41:31;;;;;;;5.77;5.47;;;;;;;8.30;100.00;95833.44;4938470;29;20194;-74
2022/11/04 07:43:57;;;;;;;5.40;5.00;;;;;;;8.34;100.00;95833.78;4955833;29;20280;-71
2022/11/04 07:46:23;;;;;;;5.57;5.27;;;;;;;8.46;100.00;95836.31;4943466;28;20186;-73
2022/11/04 07:48:48;;;;;;;5.90;5.40;;;;;;;8.71;100.00;95827.06;4937121;29;20202;-72
2022/11/04 07:51:16;;;;;;;5.67;5.30;;;;;;;8.56;100.00;95824.22;4940026;29;20190;-71
2022/11/04 07:53:42;;;;;;;6.30;5.70;;;;;;;8.75;100.00;95822.16;4946362;29;20224;-72
2022/11/04 07:56:13;;;;;;;5.73;5.43;;;;;;;8.63;100.00;95816.22;4955702;29;20209;-72
2022/11/04 07:58:39;;;;;;;6.23;5.77;;;;;;;8.61;100.00;95813.06;4942070;29;20513;-74
2022/11/04 08:01:17;;;;;;;15.73;14.90;;;;;;;8.81;100.00;95810.75;4937876;29;20190;-73
2022/11/04 08:03:43;;;;;;;15.10;14.20;;;;;;;8.71;100.00;95807.97;4935363;29;20277;-72
2022/11/04 08:06:10;;;;;;;10.10;9.53;;;;;;;8.62;100.00;95802.38;4941870;29;20196;-72
2022/11/04 08:08:36;;;;;;;4.73;4.30;;;;;;;8.52;100.00;95807.44;4955980;29;20182;-72
2022/11/04 08:11:06;;;;;;;4.73;4.40;;;;;;;8.75;100.00;95801.25;4955738;29;20174;-72
2022/11/04 08:13:33;;;;;;;6.47;5.90;;;;;;;8.90;100.00;95809.31;4955485;29;20177;-72
2022/11/04 08:16:09;;;;;;;5.70;5.20;;;;;;;8.95;100.00;95813.84;4941481;29;20269;-72
2022/11/04 08:18:35;;;;;;;5.07;4.87;;;;;;;9.15;100.00;95812.28;4943137;29;20208;-72
2022/11/04 08:21:02;;;;;;;6.03;5.70;;;;;;;9.15;100.00;95808.88;4950225;29;20197;-73
2022/11/04 08:23:28;;;;;;;13.23;12.33;;;;;;;9.46;100.00;95823.16;4955158;29;20174;-72
2022/11/04 08:25:55;;;;;;;12.97;12.07;;;;;;;9.45;100.00;95818.94;4950530;29;20261;-75
2022/11/04 08:28:20;;;;;;;12.33;11.57;;;;;;;9.61;100.00;95825.94;4945676;29;20230;-73
2022/11/04 08:30:56;;;;;;;6.20;5.60;;;;;;;9.60;100.00;95829.59;4936086;29;20216;-73
2022/11/04 08:33:24;;;;;;;5.33;4.97;;;;;;;9.58;100.00;95831.66;4952771;29;20180;-73
2022/11/04 08:35:49;;;;;;;8.00;4.73;;;;;;;9.69;100.00;95828.16;4951055;29;20186;-73
2022/11/04 08:38:15;;;;;;;5.83;5.33;;;;;;;9.82;100.00;95834.81;4935158;29;20614;-73
2022/11/04 08:40:40;;;;;;;4.97;4.73;;;;;;;9.82;100.00;95832.19;4954618;29;20200;-72
2022/11/04 08:43:07;;;;;;;4.67;4.47;;;;;;;9.86;100.00;95828.06;4952765;29;20542;-72
2022/11/04 08:45:32;;;;;;;7.27;6.67;;;;;;;9.94;100.00;95830.25;4944079;29;20193;-72
2022/11/04 08:47:58;;;;;;;7.03;6.60;;;;;;;9.76;100.00;95831.34;4952895;29;20189;-72
2022/11/04 08:50:26;;;;;;;6.07;5.67;;;;;;;9.86;100.00;95828.84;4936825;29;20181;-71
2022/11/04 08:52:52;;;;;;;6.23;5.43;;;;;;;9.96;100.00;95828.19;4946440;29;20234;-73
2022/11/04 08:55:18;;;;;;;4.50;4.30;;;;;;;10.10;100.00;95825.94;4935791;29;20190;-72
2022/11/04 08:57:43;;;;;;;5.53;4.13;;;;;;;10.09;100.00;95822.53;4942566;29;20563;-72
2022/11/04 09:00:09;;;;;;;4.47;4.10;;;;;;;9.93;100.00;95828.66;4942048;29;20196;-73
2022/11/04 09:02:35;;;;;;;4.57;4.33;;;;;;;9.97;100.00;95825.28;4940400;29;20576;-72
2022/11/04 09:05:00;;;;;;;4.53;4.13;;;;;;;10.10;100.00;95839.81;4946445;29;20182;-72
2022/11/04 09:07:26;;;;;;;4.97;4.67;;;;;;;10.07;100.00;95839.53;4951750;29;20196;-72
2022/11/04 09:09:51;;;;;;;8.47;7.97;;;;;;;9.98;100.00;95841.78;4954368;29;20188;-72
2022/11/04 09:12:16;;;;;;;6.80;6.40;;;;;;;9.85;100.00;95842.19;4953968;29;20189;-72
2022/11/04 09:14:42;;;;;;;5.70;5.20;;;;;;;9.90;100.00;95850.09;4939690;29;20256;-72
2022/11/04 09:17:07;;;;;;;6.90;4.80;;;;;;;9.90;100.00;95860.56;4935049;29;20269;-72
2022/11/04 09:19:32;;;;;;;6.40;5.90;;;;;;;10.02;100.00;95863.84;4935097;29;20215;-72
2022/11/04 09:21:58;;;;;;;7.03;6.47;;;;;;;10.11;100.00;95862.34;4948045;29;20201;-72
2022/11/04 09:24:23;;;;;;;7.07;6.37;;;;;;;10.06;100.00;95867.53;4952263;29;20266;-72
2022/11/04 09:26:48;;;;;;;5.80;5.23;;;;;;;10.20;100.00;95863.53;4941800;29;20416;-72
2022/11/04 09:29:14;;;;;;;6.97;4.40;;;;;;;10.17;100.00;95863.22;4936419;29;20273;-72
2022/11/04 09:31:39;;;;;;;6.23;5.90;;;;;;;10.23;100.00;95857.81;4939920;29;20185;-72
2022/11/04 09:34:04;;;;;;;10.17;9.47;;;;;;;10.22;100.00;95852.81;4948983;29;20181;-72
2022/11/04 09:36:30;;;;;;;15.93;14.87;;;;;;;10.21;100.00;95857.25;4953204;29;20308;-72
2022/11/04 09:38:56;;;;;;;17.60;16.60;;;;;;;10.37;100.00;95858.97;4953632;29;20221;-72
2022/11/04 09:41:46;;;;;;;12.80;12.10;;;;;;;10.38;100.00;95852.72;4936525;29;20188;-71
2022/11/04 09:44:23;;;;;;;13.80;13.03;;;;;;;10.42;100.00;95856.41;4944405;29;20218;-71
2022/11/04 09:46:51;;;;;;;12.77;12.00;;;;;;;10.38;100.00;95854.53;4949321;29;20169;-72
2022/11/04 09:49:17;;;;;;;7.30;6.80;;;;;;;10.52;100.00;95857.56;4952005;29;20202;-71
2022/11/04 09:51:46;;;;;;;14.03;13.13;;;;;;;10.71;100.00;95851.69;4947160;29;20590;-71
2022/11/04 09:54:20;;;;;;;10.27;9.67;;;;;;;11.03;100.00;95851.69;4952736;29;20204;-74
2022/11/04 09:56:50;;;;;;;9.67;8.93;;;;;;;11.02;100.00;95844.06;4942266;29;20230;-72
2022/11/04 09:59:23;;;;;;;17.63;16.57;;;;;;;10.96;100.00;95835.38;4936047;29;20301;-72
2022/11/04 10:02:17;;;;;;;18.00;17.10;;;;;;;10.81;98.14;95832.66;4935431;29;20170;-75
2022/11/04 10:05:01;;;;;;;10.60;10.03;;;;;;;11.09;95.66;95834.91;4942966;29;20264;-72
2022/11/04 10:07:43;;;;;;;13.07;12.37;;;;;;;11.35;95.28;95846.38;4953477;28;20181;-72
2022/11/04 10:10:53;;;;;;;16.70;15.70;;;;;;;11.27;93.95;95834.50;4957277;29;20177;-72
2022/11/04 10:13:40;;;;;;;13.17;12.30;;;;;;;11.34;92.66;95828.25;4868650;29;20192;-73
2022/11/04 10:16:09;;;;;;;13.27;12.37;;;;;;;11.28;92.84;95840.53;4940130;29;20198;-72
2022/11/04 10:19:04;;;;;;;14.80;14.00;;;;;;;11.16;93.52;95830.25;4938030;29;20201;-72
2022/11/04 10:21:46;;;;;;;22.37;21.17;;;;;;;11.29;92.69;95831.63;4884272;29;20288;-72
2022/11/04 10:24:14;;;;;;;22.37;20.93;;;;;;;11.23;93.18;95825.56;4954775;29;20550;-75
2022/11/04 10:26:49;;;;;;;31.13;29.30;;;;;;;11.29;94.36;95822.97;4944173;29;20182;-72
2022/11/04 10:29:27;;;;;;;13.07;12.23;;;;;;;11.26;94.40;95822.44;4939132;29;20196;-73
2022/11/04 10:31:56;;;;;;;4.83;4.03;;;;;;;11.40;94.42;95822.78;4942437;29;20301;-73
2022/11/04 10:34:35;;;;;;;9.57;8.90;;;;;;;11.40;94.23;95816.75;4953502;29;20186;-71
2022/11/04 10:37:02;;;;;;;4.77;4.30;;;;;;;11.41;95.52;95813.88;4934683;29;20265;-74
2022/11/04 10:39:36;;;;;;;5.67;4.23;;;;;;;11.44;95.39;95815.19;4937792;29;20205;-72
2022/11/04 10:42:03;;;;;;;6.00;4.27;;;;;;;11.61;94.61;95813.16;4937616;29;20187;-72
2022/11/04 10:44:32;;;;;;;22.17;20.93;;;;;;;11.52;94.25;95810.25;4919723;29;20333;-72
2022/11/04 10:47:23;;;;;;;17.23;16.07;;;;;;;11.56;93.07;95808.69;4937726;29;20321;-72
2022/11/04 10:49:55;;;;;;;11.27;10.47;;;;;;;11.88;90.02;95815.63;4936774;29;20186;-71
2022/11/04 10:52:20;;;;;;;8.33;7.77;;;;;;;11.82;89.84;95804.31;4929185;29;20194;-72
2022/11/04 10:54:48;;;;;;;8.13;7.60;;;;;;;11.88;89.47;95803.31;4920464;29;20196;-72
2022/11/04 10:57:23;;;;;;;10.30;9.63;;;;;;;11.47;92.54;95804.19;4920096;29;20190;-72
2022/11/04 10:59:59;;;;;;;14.33;13.40;;;;;;;11.67;90.37;95812.94;4933612;29;20877;-72
2022/11/04 11:02:36;;;;;;;30.63;28.90;;;;;;;11.64;90.96;95810.03;4936189;29;20178;-72
2022/11/04 11:05:16;;;;;;;20.37;19.10;;;;;;;11.89;90.25;95801.47;4934163;29;20181;-75
2022/11/04 11:07:43;;;;;;;29.70;28.07;;;;;;;11.74;92.06;95804.84;4937461;29;20272;-71
2022/11/04 11:10:30;;;;;;;21.90;20.60;;;;;;;11.92;90.36;95811.47;4929225;29;20667;-72
2022/11/04 11:13:01;;;;;;;13.87;12.97;;;;;;;11.83;88.90;95805.91;4936647;29;20647;-72
2022/11/04 11:15:37;;;;;;;18.50;17.50;;;;;;;11.89;89.53;95804.88;4935545;29;20590;-71
2022/11/04 11:18:21;;;;;;;22.90;21.57;;;;;;;11.56;93.38;95808.69;4937020;29;20343;-71
2022/11/04 11:21:03;;;;;;;16.30;15.10;;;;;;;11.82;86.94;95801.69;4935079;29;20185;-71
2022/11/04 11:23:39;;;;;;;8.57;8.03;;;;;;;11.89;84.83;95804.88;4936384;29;20181;-71
2022/11/04 11:26:11;;;;;;;11.70;10.93;;;;;;;11.79;82.84;95799.59;4936937;29;20193;-71
2022/11/04 11:28:39;;;;;;;19.73;18.43;;;;;;;11.62;84.94;95799.78;4938807;29;20178;-72
2022/11/04 11:31:15;;;;;;;30.03;28.47;;;;;;;11.79;83.91;95796.19;4939622;29;20984;-72
2022/11/04 11:33:47;;;;;;;19.93;18.60;;;;;;;11.77;83.37;95788.56;4919672;29;20216;-73
2022/11/04 11:36:25;;;;;;;16.63;15.53;;;;;;;11.88;81.50;95787.53;4940528;29;20630;-73
2022/11/04 11:39:05;;;;;;;9.43;8.93;;;;;;;12.08;80.39;95777.09;4952319;29;20546;-73
2022/11/04 11:41:34;;;;;;;24.90;23.47;;;;;;;12.13;79.35;95775.53;4955014;29;20193;-72
2022/11/04 11:44:05;;;;;;;35.97;33.90;;;;;;;11.93;80.58;95778.88;4955827;29;20654;-71
2022/11/04 11:46:34;;;;;;;24.43;22.97;;;;;;;12.26;79.05;95775.03;4954886;29;20185;-71
2022/11/04 11:49:02;;;;;;;15.87;14.80;;;;;;;12.38;77.26;95781.59;4950697;29;20229;-72
2022/11/04 11:51:35;;;;;;;14.27;13.27;;;;;;;12.54;76.60;95779.75;4949086;29;20186;-75
2022/11/04 11:54:22;;;;;;;9.30;8.63;;;;;;;11.94;80.08;95778.63;4948539;29;20196;-74
2022/11/04 11:56:51;;;;;;;11.93;10.53;;;;;;;12.07;80.19;95778.16;4937228;29;20225;-73
2022/11/04 11:59:33;;;;;;;7.70;6.07;;;;;;;12.42;79.51;95776.59;4953071;29;20725;-72
2022/11/04 12:02:17;;;;;;;10.13;9.30;;;;;;;12.63;78.09;95772.13;4946286;29;20191;-74
2022/11/04 12:04:42;;;;;;;14.43;13.43;;;;;;;12.34;79.23;95770.03;4940337;29;20186;-75
2022/11/04 12:07:34;;;;;;;20.90;19.37;;;;;;;12.76;76.17;95768.97;4945243;29;20634;-74
2022/11/04 12:10:05;;;;;;;21.40;20.10;;;;;;;12.84;76.19;95773.69;4929350;29;20686;-74
2022/11/04 12:12:47;;;;;;;21.80;20.50;;;;;;;12.64;75.29;95768.44;4936170;29;20562;-74
2022/11/04 12:15:31;;;;;;;21.80;20.47;;;;;;;12.64;76.31;95768.44;4936784;29;20622;-74